Flight Track Log - Related Links

Times and Time Zones

All times are in EDT time to prevent confusion due to time zone crossing. See the N175HQ flight status page for this flight to view local times or setup timezone preferences in your user account.

Time Position Orientation Groundspeed Altitude Reporting Facility
EDT Latitude Longitude Course Direction KTS MPH feet Rate Location/Type
Sun 08:34:55 PM 39.7000 -86.3167 247° West 155 178 1,600  Level Indianapolis TRACON
Sun 08:35:49 PM 39.6833 -86.3667 247° West 188 216 3,100 2,211 Climbing Indianapolis TRACON
Sun 08:36:49 PM 39.6333 -86.4333 226° Southwest 251 289 5,800 2,800 Climbing Indianapolis TRACON
Sun 08:37:04 PM 39.6194 -86.4492 221° Southwest 243 280 6,600 3,039 Climbing Indianapolis Center
Sun 08:38:06 PM 39.5692 -86.5147 225° Southwest 252 290 9,700 2,341 Climbing Indianapolis Center
Sun 08:39:07 PM 39.5472 -86.6142 254° West 289 333 11,400 2,115 Climbing Indianapolis Center
Sun 08:40:08 PM 39.5422 -86.7356 267° West 321 369 14,000 2,293 Climbing Indianapolis Center
Sun 08:41:10 PM 39.5467 -86.8614 273° West 339 390 16,100 2,195 Climbing Indianapolis Center
Sun 08:42:11 PM 39.5514 -86.9917 273° West 355 409 18,500 2,262 Climbing Indianapolis Center
Sun 08:43:12 PM 39.5544 -87.1247 272° West 366 421 20,700 2,049 Climbing Indianapolis Center
Sun 08:44:14 PM 39.5581 -87.2586 272° West 370 426 22,700 1,659 Climbing Indianapolis Center
Sun 08:45:15 PM 39.5617 -87.3961 272° West 380 437 24,100 1,377 Climbing Indianapolis Center
Sun 08:46:16 PM 39.5647 -87.5406 272° West 397 457 25,500 1,366 Climbing Indianapolis Center
Sun 08:47:18 PM 39.5683 -87.6878 272° West 406 467 26,900 1,512 Climbing Indianapolis Center
Sun 08:48:19 PM 39.5714 -87.8647 271° West 408 470 28,600 1,453 Climbing Indianapolis Center
Sun 08:48:53 PM 39.5722 -87.9294 271° West 414 476 29,200 1,263 Climbing Kansas City Center
Sun 08:49:54 PM 39.5758 -88.0753 272° West 410 472 30,600 1,152 Climbing Kansas City Center
Sun 08:50:58 PM 39.5875 -88.2514 275° West 409 471 31,600 1,200 Climbing Kansas City Center
Sun 08:51:59 PM 39.6100 -88.3978 281° West 412 474 33,100 1,339 Climbing Kansas City Center
Sun 08:52:59 PM 39.6297 -88.5408 280° West 406 467 34,300 823 Climbing Kansas City Center
Sun 08:54:03 PM 39.6517 -88.6867 281° West 405 466 34,800 816 Climbing Kansas City Center
Sun 08:55:04 PM 39.6717 -88.8314 280° West 407 468 36,000 585 Climbing Kansas City Center
Sun 08:56:06 PM 39.6917 -88.9717 281° West 401 461 36,000  Level Kansas City Center
Sun 08:57:08 PM 39.7106 -89.1106 280° West 392 451 36,000  Level Kansas City Center
Sun 08:58:08 PM 39.7300 -89.2511 280° West 393 452 36,000  Level Kansas City Center
Sun 08:59:09 PM 39.7489 -89.3936 280° West 397 457 36,000  Level Kansas City Center
Sun 09:00:13 PM 39.7683 -89.5383 280° West 403 464 36,000  Level Kansas City Center
Sun 09:01:15 PM 39.7908 -89.7117 280° West 403 464 36,000  Level Kansas City Center
Sun 09:02:16 PM 39.8100 -89.8561 280° West 404 465 36,000  Level Kansas City Center
Sun 09:03:18 PM 39.8292 -89.9994 280° West 403 464 36,000  Level Kansas City Center
Sun 09:04:20 PM 39.8475 -90.1447 279° West 405 466 36,000  Level Kansas City Center
Sun 09:05:22 PM 39.8664 -90.2906 280° West 406 467 36,000  Level Kansas City Center
Sun 09:06:23 PM 39.8850 -90.4356 280° West 407 468 36,000  Level Kansas City Center
Sun 09:07:25 PM 39.9036 -90.5806 280° West 404 465 36,000  Level Kansas City Center
Sun 09:08:26 PM 39.9206 -90.7233 279° West 402 463 36,000  Level Kansas City Center
Sun 09:09:28 PM 39.9383 -90.8631 279° West 395 455 36,000  Level Kansas City Center
Sun 09:10:28 PM 39.9583 -91.0333 279° West 397 457 36,000  Level Kansas City Center
Sun 09:11:30 PM 39.9753 -91.1739 279° West 398 458 36,000  Level Kansas City Center
Sun 09:12:32 PM 39.9914 -91.3144 279° West 396 456 36,000  Level Kansas City Center
Sun 09:13:33 PM 40.0075 -91.4550 279° West 395 455 36,000  Level Kansas City Center
Sun 09:14:34 PM 40.0244 -91.5961 279° West 397 457 36,000  Level Kansas City Center
Sun 09:15:37 PM 40.0408 -91.7372 279° West 397 457 36,000  Level Kansas City Center
Sun 09:16:37 PM 40.0589 -91.9050 278° West 392 451 36,000  Level Kansas City Center
Sun 09:17:41 PM 40.0756 -92.0414 279° West 387 445 36,000  Level Kansas City Center
Sun 09:18:43 PM 40.0903 -92.1781 278° West 383 441 36,000  Level Kansas City Center
Sun 09:19:43 PM 40.1053 -92.3156 278° West 384 442 36,000  Level Kansas City Center
Sun 09:20:44 PM 40.1200 -92.4494 278° West 380 437 36,000  Level Kansas City Center
Sun 09:21:48 PM 40.1389 -92.6028 279° West 381 438 36,000  Level Kansas City Center
Sun 09:22:48 PM 40.1814 -92.7264 294° West 388 447 36,000  Level Kansas City Center
Sun 09:23:49 PM 40.2306 -92.8717 294° West 391 450 36,000  Level Kansas City Center
Sun 09:24:53 PM 40.2719 -92.9953 294° West 390 449 36,000  Level Kansas City Center
Sun 09:25:54 PM 40.3175 -93.1306 294° West 376 433 36,000  Level Kansas City Center
Sun 09:26:55 PM 40.3592 -93.2525 294° West 370 426 36,000  Level Kansas City Center
Sun 09:27:56 PM 40.4003 -93.3753 294° West 371 427 36,000  Level Kansas City Center
Sun 09:28:17 PM 40.4158 -93.4261 292° West 372 428 36,000  Level Minneapolis Center
Sun 09:29:19 PM 40.4586 -93.5531 294° West 381 438 36,000  Level Minneapolis Center
Sun 09:30:21 PM 40.5014 -93.6825 294° West 387 445 36,000  Level Minneapolis Center
Sun 09:31:22 PM 40.5442 -93.8122 293° West 390 449 36,000  Level Minneapolis Center
Sun 09:32:24 PM 40.5792 -93.9144 294° West 387 445 36,000  Level Minneapolis Center
Sun 09:33:26 PM 40.6386 -94.0975 293° West 391 450 36,000  Level Minneapolis Center
Sun 09:34:27 PM 40.6811 -94.2275 293° West 390 449 36,000  Level Minneapolis Center
Sun 09:35:29 PM 40.7225 -94.3572 293° West 388 447 36,000  Level Minneapolis Center
Sun 09:36:30 PM 40.7658 -94.4850 294° West 385 443 36,000  Level Minneapolis Center
Sun 09:37:32 PM 40.8089 -94.6133 294° West 389 448 36,000  Level Minneapolis Center
Sun 09:38:33 PM 40.8606 -94.7753 293° West 396 456 36,000  Level Minneapolis Center
Sun 09:39:35 PM 40.9047 -94.9067 294° West 394 453 36,000  Level Minneapolis Center
Sun 09:40:36 PM 40.9447 -95.0314 293° West 383 441 36,000  Level Minneapolis Center
Sun 09:41:37 PM 40.9856 -95.1589 293° West 378 435 36,000  Level Minneapolis Center
Sun 09:42:39 PM 41.0275 -95.2947 292° West 391 450 36,000  Level Minneapolis Center
Sun 09:43:40 PM 41.0706 -95.4286 293° West 395 455 36,000  Level Minneapolis Center
Sun 09:44:42 PM 41.1119 -95.5622 292° West 394 453 36,000  Level Minneapolis Center
Sun 09:45:43 PM 41.1522 -95.6906 293° West 386 444 36,000  Level Minneapolis Center
Sun 09:46:44 PM 41.1772 -95.8514 282° West 374 430 36,000  Level Minneapolis Center
Sun 09:47:45 PM 41.1903 -95.9881 277° West 371 427 36,000  Level Minneapolis Center
Sun 09:48:47 PM 41.2017 -96.1267 276° West 376 433 36,000  Level Minneapolis Center
Sun 09:49:48 PM 41.2136 -96.2650 277° West 377 434 36,000  Level Minneapolis Center
Sun 09:50:49 PM 41.2261 -96.3881 278° West 380 437 36,000  Level Minneapolis Center
Sun 09:51:51 PM 41.2400 -96.5606 276° West 390 449 36,000  Level Minneapolis Center
Sun 09:52:52 PM 41.2519 -96.7031 276° West 387 445 36,000  Level Minneapolis Center
Sun 09:53:53 PM 41.2625 -96.8447 276° West 384 442 36,000  Level Minneapolis Center
Sun 09:54:54 PM 41.2739 -96.9844 276° West 382 440 36,000  Level Minneapolis Center
Sun 09:55:55 PM 41.2847 -97.1275 276° West 387 445 36,000  Level Minneapolis Center
Sun 09:56:57 PM 41.2969 -97.2719 276° West 391 450 36,000  Level Minneapolis Center
Sun 09:57:58 PM 41.3086 -97.4306 276° West 390 449 36,000  Level Minneapolis Center
Sun 09:58:59 PM 41.3189 -97.5719 276° West 385 443 36,000  Level Minneapolis Center
Sun 10:00:00 PM 41.3297 -97.7136 276° West 385 443 36,000  Level Minneapolis Center
Sun 10:01:02 PM 41.3389 -97.8428 275° West 391 450 36,000  Level Minneapolis Center
Sun 10:02:03 PM 41.3492 -97.9842 276° West 388 447 36,000  Level Minneapolis Center
Sun 10:03:04 PM 41.3603 -98.1442 275° West 389 448 36,000  Level Minneapolis Center
Sun 10:04:17 PM 41.3708 -98.2878 276° West 391 450 36,000  Level Minneapolis Center
Sun 10:05:19 PM 41.3461 -98.4733 260° West 401 461 36,000  Level Minneapolis Center
Sun 10:06:20 PM 41.3128 -98.6153 253° West 402 463 36,000  Level Minneapolis Center
Sun 10:07:21 PM 41.2764 -98.7592 251° West 407 468 36,000  Level Minneapolis Center
Sun 10:08:22 PM 41.2400 -98.9008 251° West 407 468 36,000  Level Minneapolis Center
Sun 10:09:20 PM 41.2039 -99.0486 252° West 403 464 36,000  Level Denver Center
Sun 10:10:22 PM 41.1700 -99.1844 252° West 395 455 36,000  Level Denver Center
Sun 10:11:23 PM 41.1356 -99.3200 251° West 390 449 36,000  Level Denver Center
Sun 10:12:25 PM 41.0997 -99.4592 251° West 385 443 36,000  Level Denver Center
Sun 10:13:27 PM 41.0678 -99.5861 252° West 381 438 36,000  Level Denver Center
Sun 10:14:28 PM 41.0350 -99.7161 252° West 375 432 36,000  Level Denver Center
Sun 10:15:30 PM 40.9994 -99.8517 251° West 366 421 36,000  Level Denver Center
Sun 10:16:32 PM 40.9628 -99.9894 251° West 358 412 36,000  Level Denver Center
Sun 10:17:34 PM 40.9331 -100.1044 251° West 349 402 36,000  Level Denver Center
Sun 10:18:35 PM 40.8981 -100.2392 251° West 347 399 36,000  Level Denver Center
Sun 10:19:37 PM 40.8678 -100.3539 251° West 347 399 36,000  Level Denver Center
Sun 10:20:39 PM 40.8369 -100.4706 251° West 349 402 36,000  Level Denver Center
Sun 10:21:41 PM 40.8017 -100.6033 251° West 343 395 36,000  Level Denver Center
Sun 10:22:42 PM 40.7750 -100.7194 253° West 339 390 36,000  Level Denver Center
Sun 10:23:44 PM 40.7569 -100.8369 259° West 330 380 36,000  Level Denver Center
Sun 10:24:46 PM 40.7358 -100.9678 258° West 327 376 36,000  Level Denver Center
Sun 10:25:47 PM 40.7169 -101.0808 258° West 330 380 36,000  Level Denver Center
Sun 10:26:49 PM 40.6944 -101.2100 257° West 325 374 36,000 -532 Level Denver Center
Sun 10:27:51 PM 40.6744 -101.3219 257° West 326 375 34,900 -968 Descending Denver Center
Sun 10:28:53 PM 40.6558 -101.4303 257° West 319 367 34,000 -439 Descending Denver Center
Sun 10:29:54 PM 40.6331 -101.5592 257° West 323 372 34,000  Level Denver Center
Sun 10:30:56 PM 40.6128 -101.6703 257° West 325 374 34,000  Level Denver Center
Sun 10:31:58 PM 40.5903 -101.7989 257° West 324 373 34,000  Level Denver Center
Sun 10:33:00 PM 40.5711 -101.9097 257° West 325 374 34,000  Level Denver Center
Sun 10:34:01 PM 40.5467 -102.0372 256° West 323 372 34,000  Level Denver Center
Sun 10:35:03 PM 40.5261 -102.1467 256° West 323 372 34,000  Level Denver Center
Sun 10:36:05 PM 40.5039 -102.2742 257° West 320 368 34,000  Level Denver Center
Sun 10:37:07 PM 40.4822 -102.3839 255° West 325 374 34,000  Level Denver Center
Sun 10:38:08 PM 40.4664 -102.4756 257° West 323 372 34,000  Level Denver Center
Sun 10:39:10 PM 40.4386 -102.6236 256° West 326 375 34,000  Level Denver Center
Sun 10:40:12 PM 40.4172 -102.7308 255° West 325 374 34,000  Level Denver Center
Sun 10:41:13 PM 40.3956 -102.8489 256° West 329 379 34,000  Level Denver Center
Sun 10:42:15 PM 40.3683 -102.9878 256° West 334 384 34,000 -387 Level Denver Center
Sun 10:43:17 PM 40.3456 -103.1075 256° West 338 389 33,200 -1,268 Descending Denver Center
Sun 10:44:18 PM 40.3236 -103.2275 257° West 336 387 31,400 -1,756 Descending Denver Center
Sun 10:45:20 PM 40.2989 -103.3483 255° West 341 392 29,600 -1,742 Descending Denver Center
Sun 10:46:22 PM 40.2769 -103.4661 256° West 332 382 27,800 -1,707 Descending Denver Center
Sun 10:47:23 PM 40.2533 -103.5819 255° West 329 379 26,100 -1,659 Descending Denver Center
Sun 10:48:25 PM 40.2317 -103.6958 256° West 321 369 24,400 -1,597 Descending Denver Center
Sun 10:49:27 PM 40.2128 -103.7986 256° West 275 316 22,800 -1,415 Descending Denver Center
Sun 10:50:28 PM 40.1867 -103.8861 249° West 262 302 21,500 -1,366 Descending Denver Center
Sun 10:51:30 PM 40.1447 -103.9736 238° Southwest 263 303 20,000 -1,403 Descending Denver Center
Sun 10:52:32 PM 40.1058 -104.0569 239° Southwest 268 308 18,600 -1,317 Descending Denver Center
Sun 10:53:33 PM 40.0678 -104.1414 240° Southwest 271 312 17,300 -1,220 Descending Denver Center
Sun 10:54:35 PM 40.0236 -104.2347 238° Southwest 278 320 16,100 -1,073 Descending Denver Center
Sun 10:55:36 PM 39.9850 -104.3183 239° Southwest 272 313 15,100 -927 Descending Denver Center
Sun 10:56:38 PM 39.9467 -104.4000 239° Southwest 265 305 14,200 -1,073 Descending Denver Center
Sun 10:57:39 PM 39.9044 -104.4850 237° Southwest 261 300 12,900 -1,220 Descending Denver Center
Sun 10:58:41 PM 39.8381 -104.5011 191° South 242 278 11,700 -1,268 Descending Denver Center
Sun 10:59:42 PM 39.7811 -104.5031 182° South 205 236 10,300 -1,707 Descending Denver Center
Sun 11:00:44 PM 39.7397 -104.5372 212° Southwest 198 228 8,200 -1,561 Descending Denver Center
Sun 11:01:45 PM 39.7369 -104.6167 267° West 202 232 7,100 -780 Descending Denver Center
Sun 11:02:47 PM 39.7694 -104.6431 328° Northwest 139 160 6,600 -585 Descending Denver Center
Sun 11:03:48 PM 39.8053 -104.6422 North 129 148 5,900 -634 Descending Denver Center
Sun 11:04:50 PM 39.8456 -104.6419 360° North 135 155 5,300 -581 Descending Denver Center
Sun 11:06:00 PM 39.8500 -104.6667 339° North  Level FlightAware Approximate
Sun 11:13:00 PM 39.8617 -104.6732 339° North  Level Estimated
Sun 11:14:00 PM 39.8617 -104.6732 339° North  Level Estimated

Login

Don't have an account? Register now (free) for customized features, flight alerts, and more!